Time;durP1;ratioP1;P1;durP2;ratioP2;P2;SDS_P1;SDS_P2;PMS_P1;PMS_P2;Temp;Humidity;BMP_temperature;BMP_pressure;BME280_temperature;BME280_humidity;BME280_pressure;Samples;Min_cycle;Max_cycle;Signal;HPM_P1;HPM_P2
2022/01/02 00:01:50;;;;;;;;;6.25;6.25;;;;;15.49;53.44;99186.31;4863281;28;102331;-79
2022/01/02 00:04:19;;;;;;;;;5.25;4.00;;;;;15.49;53.32;99175.41;4847861;28;103465;-78
2022/01/02 00:06:53;;;;;;;;;5.50;5.25;;;;;15.52;52.98;99189.47;4863037;28;102329;-79
2022/01/02 00:09:33;;;;;;;;;5.50;5.00;;;;;15.52;53.16;99185.91;4861159;28;102106;-79
2022/01/02 00:12:06;;;;;;;;;5.00;4.75;;;;;15.53;53.00;99182.13;4865983;28;102402;-81
2022/01/02 00:14:35;;;;;;;;;7.00;5.00;;;;;15.52;53.03;99181.31;4857570;28;103444;-78
2022/01/02 00:17:03;;;;;;;;;5.25;5.00;;;;;15.52;53.22;99188.63;4864989;28;102813;-79
2022/01/02 00:19:32;;;;;;;;;4.50;3.00;;;;;15.53;53.26;99193.03;4861202;28;101752;-79
2022/01/02 00:22:01;;;;;;;;;4.00;3.00;;;;;15.52;53.14;99181.31;4865944;28;103661;-79
2022/01/02 00:24:29;;;;;;;;;3.75;3.25;;;;;15.53;53.25;99188.44;4866927;28;103410;-79
2022/01/02 00:26:57;;;;;;;;;4.50;3.00;;;;;15.51;53.07;99182.34;4857243;28;104346;-79
2022/01/02 00:29:24;;;;;;;;;4.75;4.75;;;;;15.51;53.53;99187.78;4866778;28;102046;-78
2022/01/02 00:31:53;;;;;;;;;4.00;3.50;;;;;15.51;53.09;99178.78;4867517;28;103086;-79
2022/01/02 00:34:19;;;;;;;;;5.75;4.75;;;;;15.50;53.31;99190.69;4846568;28;103371;-79
2022/01/02 00:36:47;;;;;;;;;5.50;4.50;;;;;15.50;53.09;99182.53;4849613;28;101773;-79
2022/01/02 00:39:13;;;;;;;;;5.50;4.00;;;;;15.51;53.27;99189.69;4859730;28;102108;-78
2022/01/02 00:41:54;;;;;;;;;4.75;4.75;;;;;15.50;52.98;99193.44;4867025;28;102236;-78
2022/01/02 00:44:41;;;;;;;;;4.00;3.00;;;;;15.51;53.20;99189.69;4863537;28;103775;-86
2022/01/02 00:47:31;;;;;;;;;6.00;5.00;;;;;15.51;53.23;99190.53;4859018;28;102513;-86
2022/01/02 00:50:08;;;;;;;;;5.00;4.75;;;;;15.53;53.19;99184.88;4819949;28;101929;-86
2022/01/02 00:52:37;;;;;;;;;5.50;5.00;;;;;15.53;53.18;99187.59;4860644;28;101975;-86
2022/01/02 00:55:27;;;;;;;;;6.50;6.25;;;;;15.52;53.14;99183.19;4865833;28;103418;-86
2022/01/02 00:57:59;;;;;;;;;6.00;3.25;;;;;15.52;53.52;99175.00;4861182;28;102175;-86
2022/01/02 01:00:26;;;;;;;;;5.00;4.00;;;;;15.49;53.26;99170.78;4863907;28;102332;-86
2022/01/02 01:02:56;;;;;;;;;6.25;5.00;;;;;15.51;53.38;99170.59;4864357;28;101988;-86
2022/01/02 01:05:32;;;;;;;;;6.50;6.00;;;;;15.49;53.48;99157.16;4862385;28;103586;-86
2022/01/02 01:08:06;;;;;;;;;5.00;4.50;;;;;15.51;53.56;99173.34;4846084;28;102383;-86
2022/01/02 01:10:36;;;;;;;;;4.25;4.00;;;;;15.51;53.25;99162.44;4864526;28;101646;-86
2022/01/02 01:13:05;;;;;;;;;4.25;4.25;;;;;15.52;53.57;99164.09;4862906;28;101832;-85
2022/01/02 01:15:32;;;;;;;;;4.00;3.00;;;;;15.49;52.94;99165.31;4862268;28;103206;-86
2022/01/02 01:18:01;;;;;;;;;5.00;4.00;;;;;15.52;53.15;99172.28;4865479;28;105318;-85
2022/01/02 01:20:37;;;;;;;;;3.25;3.25;;;;;15.49;53.03;99162.59;4860897;28;102883;-86
2022/01/02 01:23:05;;;;;;;;;4.50;3.50;;;;;15.50;53.54;99149.81;4862605;28;102177;-86
2022/01/02 01:25:32;;;;;;;;;4.75;4.75;;;;;15.51;52.77;99146.91;4861729;28;105513;-86
2022/01/02 01:28:00;;;;;;;;;5.50;5.00;;;;;15.52;53.22;99153.22;4862805;28;103072;-86
2022/01/02 01:30:27;;;;;;;;;4.75;4.00;;;;;15.52;53.22;99145.03;4860570;28;102020;-85
2022/01/02 01:32:55;;;;;;;;;5.50;4.75;;;;;15.51;53.44;99135.16;4864335;28;102256;-86
2022/01/02 01:35:22;;;;;;;;;4.00;4.00;;;;;15.52;53.32;99137.69;4862335;28;103457;-86
2022/01/02 01:37:49;;;;;;;;;4.50;4.50;;;;;15.52;53.03;99139.56;4859779;28;101961;-78
2022/01/02 01:40:16;;;;;;;;;5.00;4.00;;;;;15.52;52.79;99136.84;4860659;28;102203;-79
2022/01/02 01:42:55;;;;;;;;;5.75;5.50;;;;;15.52;53.38;99148.59;4860798;28;102110;-78
2022/01/02 01:47:55;;;;;;;;;7.50;6.50;;;;;15.52;53.27;99142.31;4850828;28;103159;-79
2022/01/02 01:50:26;;;;;;;;;4.50;4.00;;;;;15.51;52.80;99140.63;4857521;28;101727;-79
2022/01/02 01:52:54;;;;;;;;;7.00;5.00;;;;;15.51;52.91;99140.63;4863706;28;106445;-79
2022/01/02 01:55:21;;;;;;;;;6.25;5.00;;;;;15.51;53.18;99137.91;4851213;28;105133;-79
2022/01/02 01:57:48;;;;;;;;;5.50;4.75;;;;;15.51;53.27;99132.44;4861106;28;101790;-79
2022/01/02 02:00:16;;;;;;;;;6.25;6.00;;;;;15.51;53.14;99129.72;4844176;28;102225;-78
2022/01/02 02:02:43;;;;;;;;;4.00;4.00;;;;;15.50;53.15;99128.00;4860906;28;102355;-79
2022/01/02 02:05:11;;;;;;;;;5.75;5.25;;;;;15.49;53.23;99126.38;4858920;28;103665;-79
2022/01/02 02:07:42;;;;;;;;;6.00;5.00;;;;;15.51;53.27;99127.84;4861674;28;102136;-79
2022/01/02 02:10:23;;;;;;;;;4.75;3.50;;;;;15.52;52.89;99115.03;4865366;28;101787;-79
2022/01/02 02:12:52;;;;;;;;;8.00;6.00;;;;;15.51;53.09;99118.81;4861081;28;105750;-79
2022/01/02 02:15:20;;;;;;;;;5.00;5.00;;;;;15.51;52.62;99107.91;4841078;28;103457;-79
2022/01/02 02:17:48;;;;;;;;;6.50;5.00;;;;;15.51;53.20;99107.91;4870100;28;102362;-79
2022/01/02 02:20:19;;;;;;;;;5.00;5.00;;;;;15.49;53.06;99089.00;4863767;28;102202;-79
2022/01/02 02:22:48;;;;;;;;;5.00;4.25;;;;;15.50;53.07;99092.56;4861403;28;102235;-79
2022/01/02 02:25:16;;;;;;;;;4.75;4.00;;;;;15.49;53.21;99082.75;4858837;28;103466;-79
2022/01/02 02:27:56;;;;;;;;;5.50;4.75;;;;;15.49;53.18;99066.41;4864184;28;102095;-79
2022/01/02 02:30:24;;;;;;;;;5.50;5.50;;;;;15.48;52.74;99073.75;4845652;28;102737;-79
2022/01/02 02:32:53;;;;;;;;;5.50;4.75;;;;;15.49;52.94;99058.22;4849222;28;102366;-79
2022/01/02 02:35:20;;;;;;;;;6.75;5.75;;;;;15.50;52.93;99070.78;4864175;28;103158;-79
2022/01/02 02:37:48;;;;;;;;;7.00;6.00;;;;;15.48;53.37;99067.44;4848390;28;102794;-79
2022/01/02 02:40:16;;;;;;;;;9.75;7.00;;;;;15.48;52.75;99081.91;4857722;28;102332;-78
2022/01/02 02:42:51;;;;;;;;;7.00;6.00;;;;;15.49;53.50;99082.75;4860357;28;103362;-79
2022/01/02 02:54:20;;;;;;;;;3.25;3.25;;;;;15.51;53.71;99075.22;4864047;28;102481;-79
2022/01/02 02:59:20;;;;;;;;;4.75;3.75;;;;;15.51;53.65;99069.75;4861856;28;102131;-78
2022/01/02 03:01:47;;;;;;;;;6.00;5.25;;;;;15.49;53.15;99063.69;4859291;28;101834;-79
2022/01/02 03:04:14;;;;;;;;;5.50;4.00;;;;;15.49;53.07;99060.94;4858990;28;101855;-79
2022/01/02 03:06:42;;;;;;;;;7.25;5.75;;;;;15.48;53.17;99062.84;4857830;28;103392;-79
2022/01/02 03:09:09;;;;;;;;;5.00;4.50;;;;;15.47;53.18;99066.63;4867111;28;102175;-78
2022/01/02 03:11:39;;;;;;;;;5.00;4.00;;;;;15.48;53.23;99051.94;4856944;28;102052;-79
2022/01/02 03:14:11;;;;;;;;;4.00;4.00;;;;;15.47;53.01;99046.69;4859660;28;102316;-78
2022/01/02 03:16:38;;;;;;;;;5.25;4.00;;;;;15.47;52.80;99053.00;4861459;28;104197;-79
2022/01/02 03:19:06;;;;;;;;;5.00;4.00;;;;;15.46;53.40;99043.13;4841453;28;102449;-79
2022/01/02 03:21:33;;;;;;;;;5.50;4.50;;;;;15.47;52.95;99052.16;4864065;28;102651;-78
2022/01/02 03:24:00;;;;;;;;;6.50;5.00;;;;;15.48;53.14;99042.94;4866927;28;102103;-79
2022/01/02 03:26:27;;;;;;;;;5.50;4.75;;;;;15.47;53.31;99043.97;4860894;28;103208;-78
2022/01/02 03:28:53;;;;;;;;;5.75;5.00;;;;;15.48;53.27;99032.03;4863483;28;101782;-78
2022/01/02 03:31:20;;;;;;;;;5.25;4.25;;;;;15.48;52.88;99032.88;4862174;28;101824;-79
2022/01/02 03:33:48;;;;;;;;;6.00;5.00;;;;;15.48;52.79;99034.75;4861356;28;102284;-78
2022/01/02 03:36:15;;;;;;;;;5.00;5.00;;;;;15.48;53.04;99037.47;4855971;28;103080;-78
2022/01/02 03:38:42;;;;;;;;;5.00;4.00;;;;;15.46;52.79;99037.69;4863777;28;101719;-79
2022/01/02 03:41:09;;;;;;;;;6.00;5.00;;;;;15.48;53.23;99027.41;4858804;28;102064;-79
2022/01/02 03:43:36;;;;;;;;;6.25;6.25;;;;;15.47;53.08;99023.00;4862338;28;102265;-79
2022/01/02 03:46:03;;;;;;;;;5.75;5.00;;;;;15.48;53.20;99018.41;4860669;28;103409;-78
2022/01/02 03:48:32;;;;;;;;;5.00;5.00;;;;;15.47;53.01;99005.81;4856654;28;101759;-79
2022/01/02 03:51:03;;;;;;;;;5.00;4.25;;;;;15.47;53.07;99014.84;4849985;28;102476;-78
2022/01/02 03:53:31;;;;;;;;;5.25;4.75;;;;;15.47;53.04;99003.09;4862620;28;101900;-79
2022/01/02 03:55:58;;;;;;;;;7.00;7.00;;;;;15.46;52.97;98996.81;4861518;28;103316;-79
2022/01/02 03:58:25;;;;;;;;;3.75;3.75;;;;;15.47;53.22;98997.66;4859788;28;102090;-79
2022/01/02 04:00:52;;;;;;;;;7.25;5.25;;;;;15.46;53.00;99002.25;4864213;28;102240;-79
2022/01/02 04:03:19;;;;;;;;;6.00;4.75;;;;;15.46;53.19;99017.78;4866157;28;102219;-79
2022/01/02 04:05:46;;;;;;;;;5.50;5.00;;;;;15.47;53.20;99000.38;4862026;28;103650;-78
2022/01/02 04:08:13;;;;;;;;;5.25;5.25;;;;;15.47;52.96;98994.91;4868362;28;102178;-79
2022/01/02 04:10:40;;;;;;;;;5.00;5.00;;;;;15.46;53.22;98991.34;4861349;28;101810;-79
2022/01/02 04:13:07;;;;;;;;;4.25;4.25;;;;;15.47;53.00;98992.19;4862577;28;102089;-78
2022/01/02 04:15:34;;;;;;;;;4.00;4.00;;;;;15.48;53.00;98996.59;4861148;28;103666;-79
2022/01/02 04:18:01;;;;;;;;;5.50;4.00;;;;;15.46;53.00;98985.06;4860218;28;102104;-79
2022/01/02 04:20:29;;;;;;;;;4.25;4.00;;;;;15.47;53.09;98989.47;4869264;28;102082;-79
2022/01/02 04:22:56;;;;;;;;;3.50;3.25;;;;;15.48;52.95;98977.50;4848757;28;102775;-79
2022/01/02 04:25:23;;;;;;;;;5.00;4.25;;;;;15.47;53.04;98967.66;4857054;28;104680;-79
2022/01/02 04:27:50;;;;;;;;;6.50;6.00;;;;;15.46;52.97;98966.00;4859525;28;102144;-78
2022/01/02 04:30:17;;;;;;;;;4.75;4.00;;;;;15.45;53.02;98967.88;4865995;28;102396;-79
2022/01/02 04:32:48;;;;;;;;;5.75;4.75;;;;;15.46;53.02;98968.72;4863542;28;102235;-79
2022/01/02 04:35:15;;;;;;;;;6.75;4.75;;;;;15.46;53.11;98976.88;4858135;28;103345;-78
2022/01/02 04:37:43;;;;;;;;;5.75;5.25;;;;;15.45;53.21;98986.13;4862423;28;102293;-79
2022/01/02 04:40:10;;;;;;;;;6.25;5.00;;;;;15.45;53.43;98977.94;4860548;28;102287;-79
2022/01/02 04:42:37;;;;;;;;;6.50;5.75;;;;;15.45;53.28;98964.31;4869354;28;102366;-79
2022/01/02 04:45:05;;;;;;;;;3.50;3.50;;;;;15.44;53.12;98962.66;4863841;28;103923;-79
2022/01/02 04:47:32;;;;;;;;;5.00;4.50;;;;;15.44;53.31;98954.50;4865150;28;102816;-78
2022/01/02 04:49:59;;;;;;;;;4.00;4.00;;;;;15.46;53.01;98961.38;4862353;28;101978;-79
2022/01/02 04:52:26;;;;;;;;;5.50;5.00;;;;;15.47;52.67;98943.13;4866051;28;102233;-79
2022/01/02 04:54:53;;;;;;;;;3.00;3.00;;;;;15.46;53.00;98946.91;4869882;28;104189;-79
2022/01/02 04:57:20;;;;;;;;;5.50;3.75;;;;;15.46;53.30;98938.75;4863471;28;102713;-79
2022/01/02 04:59:47;;;;;;;;;4.50;4.50;;;;;15.45;53.16;98932.44;4858978;28;102162;-79
2022/01/02 05:02:14;;;;;;;;;4.25;4.00;;;;;15.46;52.82;98930.56;4864093;28;102332;-78
2022/01/02 05:04:41;;;;;;;;;6.75;5.00;;;;;15.45;52.58;98918.00;4863207;28;103361;-79
2022/01/02 05:07:08;;;;;;;;;6.00;5.25;;;;;15.43;53.07;98912.78;4865942;28;102069;-79
2022/01/02 05:09:35;;;;;;;;;5.00;4.00;;;;;15.43;53.17;98911.94;4864829;28;101979;-79
2022/01/02 05:12:03;;;;;;;;;5.25;4.50;;;;;15.43;53.19;98907.34;4868471;28;102189;-79
2022/01/02 05:14:30;;;;;;;;;6.25;3.75;;;;;15.43;53.26;98899.16;4860303;28;103420;-78
2022/01/02 05:16:57;;;;;;;;;6.00;3.25;;;;;15.43;53.15;98903.78;4841511;28;102422;-78
2022/01/02 05:19:24;;;;;;;;;5.75;5.00;;;;;15.44;53.05;98889.09;4870921;28;101744;-79
2022/01/02 05:21:52;;;;;;;;;4.50;4.00;;;;;15.44;52.75;98889.09;4866053;28;102058;-79
2022/01/02 05:24:19;;;;;;;;;4.50;4.00;;;;;15.43;53.10;98898.31;4860147;28;103367;-79
2022/01/02 05:26:46;;;;;;;;;6.25;4.00;;;;;15.43;52.94;98887.41;4866670;28;103172;-78
2022/01/02 05:29:13;;;;;;;;;4.25;4.00;;;;;15.44;53.00;98878.19;4861913;28;104948;-78
2022/01/02 05:31:40;;;;;;;;;5.75;3.75;;;;;15.44;53.00;98880.91;4862853;28;102142;-79
2022/01/02 05:34:07;;;;;;;;;6.00;5.00;;;;;15.45;53.03;98877.09;4865352;28;103402;-79
2022/01/02 05:36:34;;;;;;;;;3.25;3.00;;;;;15.44;53.04;98867.28;4861977;28;105255;-79
2022/01/02 05:39:01;;;;;;;;;5.00;4.50;;;;;15.45;52.47;98858.03;4863348;28;104366;-78
2022/01/02 05:41:29;;;;;;;;;4.50;3.75;;;;;15.43;53.00;98849.28;4864623;28;102354;-79
2022/01/02 05:43:57;;;;;;;;;7.75;4.75;;;;;15.43;52.96;98854.72;4842308;28;102318;-78
2022/01/02 05:46:25;;;;;;;;;3.50;3.50;;;;;15.44;53.14;98853.66;4845511;28;101753;-78
2022/01/02 05:48:52;;;;;;;;;5.75;5.00;;;;;15.42;53.13;98847.59;4827591;28;101746;-78
2022/01/02 05:51:19;;;;;;;;;4.75;3.25;;;;;15.42;53.05;98831.25;4839578;28;102455;-79
2022/01/02 05:53:46;;;;;;;;;6.00;4.50;;;;;15.42;53.08;98820.34;4839594;28;103392;-78
2022/01/02 05:56:13;;;;;;;;;4.25;4.00;;;;;15.41;53.28;98821.41;4847036;28;102219;-79
2022/01/02 05:58:40;;;;;;;;;5.25;3.75;;;;;15.40;52.91;98814.31;4840421;28;101953;-78
2022/01/02 06:01:07;;;;;;;;;5.00;4.00;;;;;15.40;53.20;98806.13;4844249;28;102548;-78
2022/01/02 06:03:35;;;;;;;;;4.75;3.25;;;;;15.40;53.20;98811.59;4842941;28;103380;-79
2022/01/02 06:06:02;;;;;;;;;6.00;5.00;;;;;15.39;52.89;98805.31;4842047;28;102138;-78
2022/01/02 06:08:29;;;;;;;;;6.25;5.50;;;;;15.40;52.83;98804.22;4825278;28;102538;-79
2022/01/02 06:10:56;;;;;;;;;8.75;5.50;;;;;15.42;53.17;98801.28;4846741;28;102070;-79
2022/01/02 06:13:23;;;;;;;;;4.25;4.00;;;;;15.42;53.03;98790.38;4841177;28;103406;-79
2022/01/02 06:15:50;;;;;;;;;4.75;3.50;;;;;15.42;53.00;98779.47;4843686;28;102141;-78
2022/01/02 06:18:17;;;;;;;;;4.00;4.00;;;;;15.41;53.16;98780.53;4845949;28;102231;-79
2022/01/02 06:20:44;;;;;;;;;5.00;4.00;;;;;15.41;53.01;98781.38;4845126;28;101854;-78
2022/01/02 06:23:11;;;;;;;;;4.75;4.00;;;;;15.39;53.10;98772.59;4830618;28;103610;-78
2022/01/02 06:25:38;;;;;;;;;5.50;4.75;;;;;15.39;53.22;98788.13;4853784;28;102162;-78
2022/01/02 06:28:05;;;;;;;;;5.00;5.00;;;;;15.40;53.10;98778.88;4843822;28;102046;-79
2022/01/02 06:30:32;;;;;;;;;9.50;6.25;;;;;15.39;53.23;98778.06;4846753;28;102193;-79
2022/01/02 06:32:59;;;;;;;;;5.75;5.00;;;;;15.37;52.77;98779.31;4848210;28;103094;-79
2022/01/02 06:35:33;;;;;;;;;5.75;4.00;;;;;15.37;52.82;98769.25;4845752;28;101904;-79
2022/01/02 06:38:14;;;;;;;;;6.25;5.00;;;;;15.36;53.49;98762.13;4846758;28;102146;-78
2022/01/02 06:40:41;;;;;;;;;5.50;5.00;;;;;15.35;53.29;98756.94;4852031;28;102177;-78
2022/01/02 06:43:08;;;;;;;;;4.25;4.25;;;;;15.36;53.13;98758.56;4855683;28;103661;-78
2022/01/02 06:45:36;;;;;;;;;5.00;4.75;;;;;15.36;53.26;98750.41;4863420;28;101813;-79
2022/01/02 06:48:03;;;;;;;;;5.00;5.00;;;;;15.35;52.97;98748.75;4868522;28;102006;-78
2022/01/02 06:50:31;;;;;;;;;4.75;4.00;;;;;15.36;53.14;98740.34;4864208;28;102502;-78
2022/01/02 06:52:58;;;;;;;;;4.75;4.75;;;;;15.37;53.08;98736.56;4865177;28;106249;-78
2022/01/02 06:55:25;;;;;;;;;4.50;4.00;;;;;15.36;53.29;98721.25;4851920;28;103360;-79
2022/01/02 06:57:52;;;;;;;;;3.00;3.00;;;;;15.38;53.07;98726.50;4865004;28;102492;-79
2022/01/02 07:00:19;;;;;;;;;6.00;4.25;;;;;15.38;53.09;98727.34;4865298;28;102348;-78
2022/01/02 07:02:46;;;;;;;;;5.00;5.00;;;;;15.38;52.86;98726.50;4866947;28;103188;-79
2022/01/02 07:05:13;;;;;;;;;5.00;4.50;;;;;15.36;53.25;98728.59;4863962;28;102318;-84
2022/01/02 07:07:42;;;;;;;;;5.00;5.00;;;;;15.35;53.00;98724.25;4867324;28;102175;-85
2022/01/02 07:10:10;;;;;;;;;6.00;5.00;;;;;15.34;53.32;98720.69;4831228;28;103082;-85
2022/01/02 07:12:37;;;;;;;;;3.25;3.00;;;;;15.32;53.21;98714.63;4830372;28;102802;-85
2022/01/02 07:15:08;;;;;;;;;7.25;6.50;;;;;15.33;52.94;98693.66;4834882;28;102146;-85
2022/01/02 07:17:35;;;;;;;;;8.00;6.00;;;;;15.35;52.95;98711.44;4834210;28;102199;-85
2022/01/02 07:20:06;;;;;;;;;6.25;5.00;;;;;15.33;53.05;98694.50;4834852;28;102429;-85
2022/01/02 07:22:33;;;;;;;;;6.75;5.75;;;;;15.33;53.13;98697.22;4819699;28;103794;-85
2022/01/02 07:25:00;;;;;;;;;4.00;4.00;;;;;15.32;53.33;98694.72;4818091;28;102197;-85
2022/01/02 07:27:27;;;;;;;;;4.25;4.00;;;;;15.33;53.19;98694.50;4833599;28;102348;-85
2022/01/02 07:29:58;;;;;;;;;4.50;4.50;;;;;15.33;52.78;98690.94;4851625;28;107101;-85
2022/01/02 07:32:25;;;;;;;;;6.00;4.00;;;;;15.36;52.90;98691.28;4854046;28;102725;-85
2022/01/02 07:34:53;;;;;;;;;4.25;4.00;;;;;15.34;52.66;98693.44;4836358;28;102263;-85
2022/01/02 07:37:20;;;;;;;;;4.00;4.00;;;;;15.36;52.71;98679.56;4851662;28;102286;-85
2022/01/02 07:39:47;;;;;;;;;5.00;4.00;;;;;15.37;52.79;98673.06;4850453;28;102409;-84
2022/01/02 07:42:14;;;;;;;;;5.50;4.50;;;;;15.34;52.88;98658.00;4853494;28;104332;-84
2022/01/02 07:44:41;;;;;;;;;4.75;4.75;;;;;15.35;53.10;98656.97;4861147;28;101830;-84
2022/01/02 07:47:08;;;;;;;;;6.00;5.00;;;;;15.35;52.47;98662.41;4881590;28;102130;-85
2022/01/02 07:49:35;;;;;;;;;4.00;4.00;;;;;15.34;53.04;98649.00;4882370;28;102260;-85
2022/01/02 07:52:02;;;;;;;;;4.75;4.25;;;;;15.35;52.75;98631.59;4869051;28;102593;-85
2022/01/02 07:54:30;;;;;;;;;5.00;5.00;;;;;15.36;52.88;98649.59;4871785;28;103236;-85
2022/01/02 07:56:57;;;;;;;;;4.00;3.00;;;;;15.35;53.56;98640.63;4855589;28;101792;-85
2022/01/02 07:59:24;;;;;;;;;5.00;4.75;;;;;15.35;53.17;98629.72;4886327;28;104266;-85
2022/01/02 08:01:52;;;;;;;;;4.50;4.50;;;;;15.34;52.85;98630.78;4854089;28;105403;-85
2022/01/02 08:04:20;;;;;;;;;5.00;4.50;;;;;15.35;53.13;98628.88;4849939;28;101847;-85
2022/01/02 08:06:47;;;;;;;;;5.25;4.00;;;;;15.33;52.96;98622.81;4874104;28;102424;-85
2022/01/02 08:09:14;;;;;;;;;4.25;4.00;;;;;15.36;53.05;98625.06;4870894;28;102492;-86
2022/01/02 08:11:41;;;;;;;;;6.00;4.25;;;;;15.35;53.04;98623.44;4872426;28;107620;-86
2022/01/02 08:14:15;;;;;;;;;4.25;4.00;;;;;15.37;53.11;98630.31;4853665;28;102078;-84
2022/01/02 08:16:43;;;;;;;;;4.50;4.00;;;;;15.37;53.02;98626.75;4871880;28;103535;-85
2022/01/02 08:19:10;;;;;;;;;5.00;5.00;;;;;15.39;52.79;98624.63;4855674;28;102158;-85
2022/01/02 08:21:37;;;;;;;;;2.75;2.75;;;;;15.39;52.81;98621.91;4838793;28;103116;-85
2022/01/02 08:24:04;;;;;;;;;4.00;4.00;;;;;15.38;52.92;98621.06;4863315;28;102340;-85
2022/01/02 08:26:32;;;;;;;;;7.75;5.75;;;;;15.38;52.84;98625.69;4869580;28;104843;-84
2022/01/02 08:29:00;;;;;;;;;3.75;3.00;;;;;15.37;53.06;98626.75;4871259;28;102029;-85
2022/01/02 08:31:28;;;;;;;;;6.00;4.00;;;;;15.35;52.63;98620.72;4869464;28;104487;-85
2022/01/02 08:33:55;;;;;;;;;6.00;5.25;;;;;15.37;52.88;98613.13;4867624;28;102375;-86
2022/01/02 08:36:23;;;;;;;;;5.00;4.75;;;;;15.37;52.84;98610.38;4871783;28;102238;-85
2022/01/02 08:38:50;;;;;;;;;5.00;4.75;;;;;15.37;53.13;98604.94;4857896;28;105110;-85
2022/01/02 08:41:17;;;;;;;;;4.50;4.00;;;;;15.37;53.29;98596.78;4863859;28;102677;-85
2022/01/02 08:43:44;;;;;;;;;6.25;5.00;;;;;15.37;52.64;98594.88;4859161;28;102257;-85
2022/01/02 08:46:11;;;;;;;;;5.75;5.25;;;;;15.37;52.79;98583.97;4883641;28;102366;-84
2022/01/02 08:48:38;;;;;;;;;5.25;4.25;;;;;15.38;53.10;98587.53;4855448;28;102234;-84
2022/01/02 08:51:05;;;;;;;;;6.75;6.00;;;;;15.39;52.65;98591.94;4872745;28;103198;-84
2022/01/02 08:53:34;;;;;;;;;7.25;5.75;;;;;15.40;52.45;98599.06;4886014;28;102119;-84
2022/01/02 08:56:01;;;;;;;;;5.00;5.00;;;;;15.41;53.15;98597.97;4888920;28;102135;-84
2022/01/02 08:58:28;;;;;;;;;4.25;4.00;;;;;15.41;52.90;98601.53;4887131;28;102207;-84
2022/01/02 09:01:00;;;;;;;;;5.00;4.00;;;;;15.43;52.58;98598.56;4890886;28;103417;-84
2022/01/02 09:03:27;;;;;;;;;7.00;6.00;;;;;15.42;52.62;98597.75;4889281;28;104696;-83
2022/01/02 09:05:54;;;;;;;;;5.75;5.50;;;;;15.43;52.77;98593.13;4884372;28;102347;-83
2022/01/02 09:08:27;;;;;;;;;6.50;5.25;;;;;15.42;52.67;98599.63;4889154;28;102324;-83
2022/01/02 09:10:54;;;;;;;;;7.25;4.25;;;;;15.42;53.08;98597.75;4882935;28;103534;-83
2022/01/02 09:13:23;;;;;;;;;6.00;5.00;;;;;15.42;52.95;98599.63;4885171;28;102665;-83
2022/01/02 09:15:50;;;;;;;;;8.75;7.00;;;;;15.41;52.62;98590.63;4874298;28;102029;-83
2022/01/02 09:18:18;;;;;;;;;3.00;1.00;;;;;15.41;52.51;98582.44;4889406;28;102834;-83
2022/01/02 09:20:46;;;;;;;;;5.00;4.00;;;;;15.42;52.83;98586.84;4869820;28;103392;-83
2022/01/02 09:23:13;;;;;;;;;5.00;4.50;;;;;15.42;52.64;98592.28;4888530;28;102665;-83
2022/01/02 09:25:40;;;;;;;;;7.00;5.00;;;;;15.40;52.52;98604.50;4884346;28;102231;-83
2022/01/02 09:28:07;;;;;;;;;4.50;4.00;;;;;15.42;52.36;98602.34;4885462;28;102149;-83
2022/01/02 09:30:34;;;;;;;;;4.75;4.00;;;;;15.42;52.77;98597.75;4884789;28;103131;-82
2022/01/02 09:33:03;;;;;;;;;5.50;4.75;;;;;15.43;52.93;98587.69;4879429;28;102156;-82
2022/01/02 09:35:30;;;;;;;;;9.50;5.25;;;;;15.43;52.35;98576.78;4889604;28;101800;-82
2022/01/02 09:37:57;;;;;;;;;5.00;5.00;;;;;15.43;52.64;98572.16;4888249;28;102203;-83
2022/01/02 09:40:25;;;;;;;;;5.50;4.75;;;;;15.44;52.66;98556.66;4874477;28;105044;-83
2022/01/02 09:42:52;;;;;;;;;4.00;4.00;;;;;15.44;52.63;98556.66;4886348;28;103246;-83
2022/01/02 09:45:19;;;;;;;;;6.75;4.00;;;;;15.44;52.69;98567.53;4885216;28;102534;-83
2022/01/02 09:47:47;;;;;;;;;4.00;3.25;;;;;15.45;52.53;98571.91;4893113;28;102825;-77
2022/01/02 09:50:14;;;;;;;;;5.75;5.00;;;;;15.45;52.98;98563.72;4883485;28;103154;-77
2022/01/02 09:52:41;;;;;;;;;5.00;4.00;;;;;15.45;52.56;98566.47;4883336;28;102271;-77
2022/01/02 09:55:10;;;;;;;;;5.25;4.00;;;;;15.45;53.24;98570.03;4887758;28;101859;-78
2022/01/02 09:57:44;;;;;;;;;6.25;4.50;;;;;15.45;52.53;98570.03;4886934;28;102220;-78
2022/01/02 10:00:12;;;;;;;;;5.00;4.25;;;;;15.46;52.42;98559.94;4890520;28;103403;-77
2022/01/02 10:02:55;;;;;;;;;7.00;6.25;;;;;15.46;52.91;98559.94;4886764;28;103814;-78
2022/01/02 10:05:24;;;;;;;;;7.50;5.00;;;;;15.47;52.54;98545.28;4883122;28;103433;-77
2022/01/02 10:07:52;;;;;;;;;6.25;5.25;;;;;15.47;52.93;98545.28;4893304;28;102043;-78
2022/01/02 10:10:19;;;;;;;;;6.00;4.25;;;;;15.46;52.75;98546.31;4883873;28;103750;-77
2022/01/02 10:12:46;;;;;;;;;5.25;5.25;;;;;15.47;52.99;98553.44;4886344;28;102570;-77
2022/01/02 10:15:21;;;;;;;;;6.00;6.00;;;;;15.49;52.69;98548.59;4890170;28;101794;-77
2022/01/02 10:17:59;;;;;;;;;3.50;3.50;;;;;15.49;52.61;98543.97;4888272;28;102073;-78
2022/01/02 10:20:37;;;;;;;;;6.25;5.50;;;;;15.51;52.79;98552.78;4883852;28;103621;-78
2022/01/02 10:23:11;;;;;;;;;6.50;5.50;;;;;15.52;52.92;98546.28;4887853;28;102071;-78
2022/01/02 10:25:41;;;;;;;;;5.75;5.00;;;;;15.52;52.59;98546.28;4887375;28;101714;-78
2022/01/02 10:28:26;;;;;;;;;6.00;3.50;;;;;15.53;52.98;98538.94;4885136;28;102245;-77
2022/01/02 10:31:15;;;;;;;;;4.75;4.75;;;;;15.54;52.86;98535.13;4887927;28;103457;-77
2022/01/02 10:33:56;;;;;;;;;4.75;4.75;;;;;15.54;53.19;98530.50;4887378;28;102084;-77
2022/01/02 10:36:45;;;;;;;;;5.50;5.50;;;;;15.58;52.61;98530.84;4885817;28;102208;-77
2022/01/02 10:39:19;;;;;;;;;7.00;7.00;;;;;15.61;52.55;98527.69;4888321;28;102096;-77
2022/01/02 10:41:48;;;;;;;;;4.75;4.25;;;;;15.62;52.65;98516.53;4880874;28;103394;-77
2022/01/02 10:44:35;;;;;;;;;7.00;5.50;;;;;15.67;52.79;98512.28;4867410;28;102273;-77
2022/01/02 10:47:15;;;;;;;;;4.75;4.75;;;;;15.69;52.83;98505.53;4886070;28;102097;-77
2022/01/02 10:50:03;;;;;;;;;8.25;5.25;;;;;15.72;52.74;98499.59;4882421;28;103444;-77
2022/01/02 10:52:45;;;;;;;;;4.25;4.00;;;;;15.75;52.24;98492.84;4879354;28;103712;-77
2022/01/02 10:55:23;;;;;;;;;5.00;5.00;;;;;15.78;52.07;98476.00;4888941;28;102160;-78
2022/01/02 10:57:51;;;;;;;;;6.75;4.00;;;;;15.80;52.79;98463.81;4883920;28;102166;-77
2022/01/02 11:00:21;;;;;;;;;6.50;5.50;;;;;15.83;52.45;98467.94;4883413;28;102165;-77
2022/01/02 11:02:48;;;;;;;;;5.25;5.00;;;;;15.85;52.37;98472.06;4886023;28;103429;-77
2022/01/02 11:05:19;;;;;;;;;6.00;5.00;;;;;15.87;52.24;98461.78;4888662;28;102628;-77
2022/01/02 11:07:49;;;;;;;;;4.25;4.00;;;;;15.88;52.08;98443.53;4889660;28;101692;-77
2022/01/02 11:10:21;;;;;;;;;3.75;3.25;;;;;15.91;52.28;98452.06;4887990;28;101770;-78
2022/01/02 11:12:49;;;;;;;;;4.00;4.00;;;;;15.92;52.27;98453.72;4891171;28;103422;-78
2022/01/02 11:15:18;;;;;;;;;4.50;4.00;;;;;15.95;52.08;98449.66;4885673;28;102231;-77
2022/01/02 11:17:45;;;;;;;;;4.25;4.25;;;;;15.96;51.89;98457.63;4888050;28;102304;-77
2022/01/02 11:20:14;;;;;;;;;4.00;3.00;;;;;15.97;52.69;98459.28;4890601;28;102398;-78
2022/01/02 11:22:50;;;;;;;;;4.25;3.75;;;;;15.97;52.02;98442.91;4886056;28;103613;-77
2022/01/02 11:25:40;;;;;;;;;4.25;4.25;;;;;15.99;52.41;98438.03;4868584;28;102161;-77
2022/01/02 11:28:32;;;;;;;;;3.75;3.75;;;;;16.01;52.01;98438.66;4885300;28;102133;-77
2022/01/02 11:30:59;;;;;;;;;3.75;3.75;;;;;16.02;52.09;98434.84;4861907;28;102687;-77
2022/01/02 11:33:31;;;;;;;;;4.75;4.00;;;;;16.04;52.05;98429.97;4887281;28;102858;-77
2022/01/02 11:35:59;;;;;;;;;4.00;4.00;;;;;16.05;52.25;98423.44;4870304;28;102334;-77
2022/01/02 11:38:27;;;;;;;;;5.00;4.00;;;;;16.05;52.51;98428.91;4890925;28;102240;-77
2022/01/02 11:40:56;;;;;;;;;4.00;4.00;;;;;16.05;51.82;98407.09;4861386;28;102291;-78
2022/01/02 11:43:35;;;;;;;;;5.00;5.00;;;;;16.06;51.94;98414.22;4884684;28;103307;-77
2022/01/02 11:46:17;;;;;;;;;3.75;3.50;;;;;16.06;52.50;98413.38;4891282;28;102167;-77
2022/01/02 11:49:03;;;;;;;;;4.75;3.75;;;;;16.06;52.35;98418.84;4891006;28;102845;-78